Sunday, February 07, 2016
08:41 UTC
  |  Log In   |  Register Free
Airport Search:

Julian Carroll Airport
(KJKL)

Julian Carroll Airport Diagram
No Airport Diagram Available

FAA data valid effective Dec 10 2015 - Feb 4 2016 (unless otherwise noted).

 
 
 
 
 
 
 
 
 
 
 
 
 
 
Current Aviation Weather for KJKL

Weather Summary


The most recent METAR observation for JKL was updated at: 12:53 UTC
METAR for KJKL is not available. Closest METAR is for KSJS
KJKL  (most recent observation was updatred at 70:75 UTC)
070753Z AUTO 26004KT 10SM CLR 02/M07 A3018 RMK AO2 SLP224 T00171072

KSJS  (33.7 nm SW)   (most recent observation was updated at 70:81 UTC)
070815Z AUTO 00000KT 10SM CLR 01/M05 A3017 RMK AO2 T00071050

TAF for KJKL is not available.
KJKL
070538Z 0706/0806 VRB03KT P6SM SCT250 FM071800 22006KT P6SM SCT100

KSJS  (33.7 nm SW)   (most recent observation was updatred at 70:53 UTC)
070538Z 0706/0806 VRB03KT P6SM SCT250
GlobalAir.com is loading additional information.
 Current Weather at JKL
35.0 F° (1.7 C°)

Southwest winds at 3.5 mph
Pressure:
30.20 in
Humidity:
54%
Wind:
Southwest at 3.5 mph
Dew Point:
19.9 F° (-6.7 C°)
Visibility:
10.00 mi
JKL NOAA Radar




Find All Airport Services Find A Hotel Find A Rental Car Find A Golf Course Find A Restaurant $100 Hamburger



Airport Weather Forecast for KJKL

Translated METAR for KJKL (0753 UTC)
METAR:
KJKL 070753Z AUTO 26004KT 10SM CLR 02/M07 A3018 RMK AO2 SLP224 T00171072
Conditions at:
KJKL (Julian Carroll, KY) observed 0753 UTC 07 February 2016
Temperature:
2°C (35.6°F)
Dewpoint:
-7°C (19.4°F) [RH = 51.3]
Pressure:
30.18 inches Hg (1022 mb)
pressure at sea level is 224 in Hg
Winds:
from the W (260 degrees) at 4.6 mph (4 knots: 2.1 m/s)
Visibility:
10 mile(s)
Ceiling:
at least 12,000 feet AGL
Clouds:
Clear below 12,000 feet AGL
Remarks:
site is un-manned
site is automated and HAS a precipitation sensor

Translated TAF for KJKL (Julian Carroll, KY) (0538 UTC)
TAF text:
KJKL 070538Z 0706/0806 VRB03KT P6SM SCT250
Forecast period:
Sunday Feb 07 2016 06:00 UTC - Monday Feb 08 2016 06:00 UTC
Forecast type:
FROM: standard forecast or significant change
Winds:
variable wind direction at 3.5 mph (3 knots: 1.5 m/s)
Visibility:
6 or more mile(s) (9.7+ km)
Ceiling:
at least 12,000 feet AGL
Clouds:
Scattered Clouds at 25,000 feet AGL
Weather:
no significant weather observed at this time
TAF text:
FM071800 22006KT P6SM SCT100
Forecast period:
Sunday Feb 07 2016 18:00 UTC - Monday Feb 08 2016 06:00 UTC
Forecast type:
FROM: standard forecast or significant change
Winds:
from the SW (220 degrees) at 6.9 mph (6 knots: 3.1 m/s)
Visibility:
6 or more mile(s) (9.7+ km)
Ceiling:
at least 12,000 feet AGL
Clouds:
Scattered Clouds at 10,000 feet AGL
Weather:
no significant weather observed at this time
FBO's on the Field
FBO Company Facility Photos Services Transportation Aviation Fuel Prices: Prices include tax
Catering Weather Repair Courtesy Rental Type 100LL JetA JetA+ MOGAS 8087
 
Add another FBO Facility Photos Catering Weather Repair Courtesy Rental Type 100LL JetA JetA+ MOGAS 8087
Services Transportation Aviation Fuel Prices: Prices include tax
There are no FBO's currently reporting fuel at JKL. List your FBO now


model-print
model-print
model-print
model-print